Jaciara, Brazil
Current Conditions -  °F | °C
As of 5:00 PM on Wednesday 17 Dec 2014 (Local Time) from SBCY Reporting Station
Scattered Clouds Scattered Clouds  
Wind Chill: 86°   Ceiling: Unl
Heat Index: 95°   Visibility: 6mi
Dew Point: 75°   Wind: 7mph
Humidity: 70%   Direction: 240°WSW
Pressure: 29.77"   Gusts: NA
Location:  15.99°S, 54.96°W
Report Text: SBCY 172000Z 24006KT 9999 SCT020 SCT100 30/24 Q1008
Loading
Personal Weather Stations






























Interactive Weather Map New forecast layout! Learn more

10-Day Weather Forecast

Advertisements
Track Severe Weather on mobile